sensor_id;sensor_type;location;lat;lon;timestamp;pressure;altitude;pressure_sealevel;temperature;humidity
39341;BME280;25059;52.132;21.062;2023-02-12T00:01:22;101588.84;;;1.48;100.00
39341;BME280;25059;52.132;21.062;2023-02-12T00:04:06;101589.66;;;1.46;100.00
39341;BME280;25059;52.132;21.062;2023-02-12T00:06:51;101587.91;;;1.45;100.00
39341;BME280;25059;52.132;21.062;2023-02-12T00:09:35;101586.06;;;1.38;100.00
39341;BME280;25059;52.132;21.062;2023-02-12T00:12:21;101601.56;;;1.35;100.00
39341;BME280;25059;52.132;21.062;2023-02-12T00:15:05;101615.19;;;1.26;100.00
39341;BME280;25059;52.132;21.062;2023-02-12T00:17:50;101617.69;;;1.21;100.00
39341;BME280;25059;52.132;21.062;2023-02-12T00:20:37;101615.91;;;1.17;100.00
39341;BME280;25059;52.132;21.062;2023-02-12T00:23:21;101619.31;;;1.16;100.00
39341;BME280;25059;52.132;21.062;2023-02-12T00:26:08;101627.91;;;1.14;100.00
39341;BME280;25059;52.132;21.062;2023-02-12T00:28:54;101640.00;;;1.15;100.00
39341;BME280;25059;52.132;21.062;2023-02-12T00:31:38;101644.25;;;1.11;100.00
39341;BME280;25059;52.132;21.062;2023-02-12T00:34:22;101646.84;;;1.11;100.00
39341;BME280;25059;52.132;21.062;2023-02-12T00:37:07;101644.16;;;1.07;100.00
39341;BME280;25059;52.132;21.062;2023-02-12T00:39:52;101644.97;;;1.04;100.00
39341;BME280;25059;52.132;21.062;2023-02-12T00:46:11;101662.13;;;0.99;100.00
39341;BME280;25059;52.132;21.062;2023-02-12T00:48:55;101658.69;;;1.00;100.00
39341;BME280;25059;52.132;21.062;2023-02-12T00:51:40;101659.53;;;0.99;100.00
39341;BME280;25059;52.132;21.062;2023-02-12T00:54:25;101664.00;;;1.06;100.00
39341;BME280;25059;52.132;21.062;2023-02-12T00:57:09;101666.50;;;1.02;100.00
39341;BME280;25059;52.132;21.062;2023-02-12T00:59:54;101672.53;;;1.01;100.00
39341;BME280;25059;52.132;21.062;2023-02-12T01:02:38;101676.69;;;0.94;100.00
39341;BME280;25059;52.132;21.062;2023-02-12T01:05:23;101685.22;;;0.90;100.00
39341;BME280;25059;52.132;21.062;2023-02-12T01:08:11;101687.66;;;0.82;100.00
39341;BME280;25059;52.132;21.062;2023-02-12T01:10:59;101697.09;;;0.80;100.00
39341;BME280;25059;52.132;21.062;2023-02-12T01:13:44;101696.97;;;0.74;100.00
39341;BME280;25059;52.132;21.062;2023-02-12T01:16:29;101707.41;;;0.79;100.00
39341;BME280;25059;52.132;21.062;2023-02-12T01:19:16;101718.56;;;0.76;100.00
39341;BME280;25059;52.132;21.062;2023-02-12T01:22:01;101722.78;;;0.71;100.00
39341;BME280;25059;52.132;21.062;2023-02-12T01:24:46;101725.38;;;0.73;100.00
39341;BME280;25059;52.132;21.062;2023-02-12T01:27:31;101724.53;;;0.72;100.00
39341;BME280;25059;52.132;21.062;2023-02-12T01:30:16;101730.63;;;0.76;100.00
39341;BME280;25059;52.132;21.062;2023-02-12T01:33:00;101727.19;;;0.75;100.00
39341;BME280;25059;52.132;21.062;2023-02-12T01:35:45;101733.41;;;0.83;100.00
39341;BME280;25059;52.132;21.062;2023-02-12T01:38:30;101745.53;;;0.86;100.00
39341;BME280;25059;52.132;21.062;2023-02-12T01:41:18;101739.34;;;0.79;100.00
39341;BME280;25059;52.132;21.062;2023-02-12T01:46:58;101741.69;;;0.69;100.00
39341;BME280;25059;52.132;21.062;2023-02-12T01:49:45;101745.16;;;0.69;100.00
39341;BME280;25059;52.132;21.062;2023-02-12T01:52:33;101748.69;;;0.73;100.00
39341;BME280;25059;52.132;21.062;2023-02-12T01:55:19;101749.66;;;0.78;100.00
39341;BME280;25059;52.132;21.062;2023-02-12T01:58:04;101749.66;;;0.78;100.00
39341;BME280;25059;52.132;21.062;2023-02-12T02:00:48;101752.28;;;0.79;100.00
39341;BME280;25059;52.132;21.062;2023-02-12T02:03:35;101759.50;;;0.92;100.00
39341;BME280;25059;52.132;21.062;2023-02-12T02:06:26;101765.56;;;0.93;100.00
39341;BME280;25059;52.132;21.062;2023-02-12T02:09:11;101769.06;;;0.95;100.00
39341;BME280;25059;52.132;21.062;2023-02-12T02:11:56;101771.72;;;0.98;100.00
39341;BME280;25059;52.132;21.062;2023-02-12T02:15:02;101777.75;;;0.99;100.00
39341;BME280;25059;52.132;21.062;2023-02-12T02:26:49;101801.84;;;0.94;100.00
39341;BME280;25059;52.132;21.062;2023-02-12T02:32:29;101815.34;;;0.83;100.00
39341;BME280;25059;52.132;21.062;2023-02-12T02:38:33;101832.59;;;0.82;100.00
39341;BME280;25059;52.132;21.062;2023-02-12T02:41:34;101836.13;;;0.86;100.00
39341;BME280;25059;52.132;21.062;2023-02-12T02:44:24;101840.41;;;0.84;100.00
39341;BME280;25059;52.132;21.062;2023-02-12T02:47:12;101848.91;;;0.78;100.00
39341;BME280;25059;52.132;21.062;2023-02-12T02:50:03;101838.53;;;0.78;100.00
39341;BME280;25059;52.132;21.062;2023-02-12T02:52:56;101845.50;;;0.81;100.00
39341;BME280;25059;52.132;21.062;2023-02-12T02:55:47;101858.38;;;0.78;100.00
39341;BME280;25059;52.132;21.062;2023-02-12T02:58:38;101868.53;;;0.70;100.00
39341;BME280;25059;52.132;21.062;2023-02-12T03:01:47;101869.41;;;0.71;100.00
39341;BME280;25059;52.132;21.062;2023-02-12T03:04:39;101873.91;;;0.78;100.00
39341;BME280;25059;52.132;21.062;2023-02-12T03:07:28;101881.03;;;0.86;100.00
39341;BME280;25059;52.132;21.062;2023-02-12T03:10:17;101904.03;;;0.76;100.00
39341;BME280;25059;52.132;21.062;2023-02-12T03:13:06;101910.94;;;0.75;100.00
39341;BME280;25059;52.132;21.062;2023-02-12T03:15:58;101927.19;;;0.70;100.00
39341;BME280;25059;52.132;21.062;2023-02-12T03:19:04;101942.75;;;0.71;100.00
39341;BME280;25059;52.132;21.062;2023-02-12T03:21:59;101934.09;;;0.71;100.00
39341;BME280;25059;52.132;21.062;2023-02-12T03:24:50;101941.91;;;0.72;100.00
39341;BME280;25059;52.132;21.062;2023-02-12T03:27:40;101944.66;;;0.78;100.00
39341;BME280;25059;52.132;21.062;2023-02-12T03:30:37;101949.13;;;0.84;100.00
39341;BME280;25059;52.132;21.062;2023-02-12T03:36:28;101951.66;;;0.82;100.00
39341;BME280;25059;52.132;21.062;2023-02-12T03:42:37;101974.06;;;0.80;100.00
39341;BME280;25059;52.132;21.062;2023-02-12T03:45:39;101984.41;;;0.80;100.00
39341;BME280;25059;52.132;21.062;2023-02-12T03:51:25;101994.72;;;0.79;100.00
39341;BME280;25059;52.132;21.062;2023-02-12T03:54:15;101986.91;;;0.77;100.00
39341;BME280;25059;52.132;21.062;2023-02-12T03:57:06;101990.28;;;0.75;100.00
39341;BME280;25059;52.132;21.062;2023-02-12T03:59:53;101991.97;;;0.73;100.00
39341;BME280;25059;52.132;21.062;2023-02-12T04:02:37;101996.38;;;0.77;100.00
39341;BME280;25059;52.132;21.062;2023-02-12T04:05:25;102006.69;;;0.75;100.00
39341;BME280;25059;52.132;21.062;2023-02-12T04:08:11;102006.69;;;0.75;100.00
39341;BME280;25059;52.132;21.062;2023-02-12T04:20:06;102007.44;;;0.71;100.00
39341;BME280;25059;52.132;21.062;2023-02-12T04:26:22;102011.63;;;0.66;100.00
39341;BME280;25059;52.132;21.062;2023-02-12T04:37:39;102032.50;;;0.72;100.00
39341;BME280;25059;52.132;21.062;2023-02-12T04:40:25;102025.59;;;0.73;100.00
39341;BME280;25059;52.132;21.062;2023-02-12T04:43:10;102032.75;;;0.81;100.00
39341;BME280;25059;52.132;21.062;2023-02-12T04:45:55;102023.19;;;0.79;100.00
39341;BME280;25059;52.132;21.062;2023-02-12T04:48:51;102032.78;;;0.83;100.00
39341;BME280;25059;52.132;21.062;2023-02-12T04:51:36;102032.78;;;0.83;100.00
39341;BME280;25059;52.132;21.062;2023-02-12T04:54:22;102036.44;;;0.89;100.00
39341;BME280;25059;52.132;21.062;2023-02-12T04:57:08;102041.69;;;0.92;100.00
39341;BME280;25059;52.132;21.062;2023-02-12T04:59:52;102046.81;;;0.91;100.00
39341;BME280;25059;52.132;21.062;2023-02-12T05:02:37;102052.72;;;0.85;100.00
39341;BME280;25059;52.132;21.062;2023-02-12T05:05:22;102065.56;;;0.82;100.00
39341;BME280;25059;52.132;21.062;2023-02-12T05:08:06;102069.88;;;0.82;100.00
39341;BME280;25059;52.132;21.062;2023-02-12T05:10:51;102071.44;;;0.77;100.00
39341;BME280;25059;52.132;21.062;2023-02-12T05:13:36;102073.72;;;0.66;100.00
39341;BME280;25059;52.132;21.062;2023-02-12T05:16:21;102083.28;;;0.69;100.00
39341;BME280;25059;52.132;21.062;2023-02-12T05:19:06;102085.78;;;0.66;100.00
39341;BME280;25059;52.132;21.062;2023-02-12T05:21:52;102094.53;;;0.69;100.00
39341;BME280;25059;52.132;21.062;2023-02-12T05:24:37;102107.50;;;0.71;100.00
39341;BME280;25059;52.132;21.062;2023-02-12T05:27:21;102107.59;;;0.74;100.00
39341;BME280;25059;52.132;21.062;2023-02-12T05:30:06;102114.41;;;0.70;100.00
39341;BME280;25059;52.132;21.062;2023-02-12T05:32:52;102115.28;;;0.71;100.00
39341;BME280;25059;52.132;21.062;2023-02-12T05:35:37;102117.16;;;0.76;100.00
39341;BME280;25059;52.132;21.062;2023-02-12T05:38:21;102124.00;;;0.74;100.00
39341;BME280;25059;52.132;21.062;2023-02-12T05:41:09;102137.72;;;0.72;100.00
39341;BME280;25059;52.132;21.062;2023-02-12T05:43:54;102137.13;;;0.80;100.00
39341;BME280;25059;52.132;21.062;2023-02-12T05:46:38;102145.16;;;0.89;100.00
39341;BME280;25059;52.132;21.062;2023-02-12T05:49:23;102150.06;;;0.80;100.00
39341;BME280;25059;52.132;21.062;2023-02-12T05:52:07;102150.91;;;0.79;100.00
39341;BME280;25059;52.132;21.062;2023-02-12T05:54:52;102152.56;;;0.77;100.00
39341;BME280;25059;52.132;21.062;2023-02-12T05:57:37;102149.88;;;0.74;100.00
39341;BME280;25059;52.132;21.062;2023-02-12T06:00:21;102166.19;;;0.72;100.00
39341;BME280;25059;52.132;21.062;2023-02-12T06:03:06;102167.22;;;0.77;100.00
39341;BME280;25059;52.132;21.062;2023-02-12T06:05:51;102175.06;;;0.80;100.00
39341;BME280;25059;52.132;21.062;2023-02-12T06:08:36;102179.38;;;0.79;100.00
39341;BME280;25059;52.132;21.062;2023-02-12T06:11:21;102192.38;;;0.81;100.00
39341;BME280;25059;52.132;21.062;2023-02-12T06:14:09;102193.84;;;0.73;100.00
39341;BME280;25059;52.132;21.062;2023-02-12T06:16:54;102194.06;;;0.80;100.00
39341;BME280;25059;52.132;21.062;2023-02-12T06:19:39;102189.72;;;0.79;100.00
39341;BME280;25059;52.132;21.062;2023-02-12T06:22:24;102202.63;;;0.78;100.00
39341;BME280;25059;52.132;21.062;2023-02-12T06:25:08;102202.56;;;0.76;100.00
39341;BME280;25059;52.132;21.062;2023-02-12T06:27:53;102217.47;;;0.83;100.00
39341;BME280;25059;52.132;21.062;2023-02-12T06:30:37;102210.63;;;0.85;100.00
39341;BME280;25059;52.132;21.062;2023-02-12T06:33:22;102214.09;;;0.86;100.00
39341;BME280;25059;52.132;21.062;2023-02-12T06:36:06;102209.75;;;0.85;100.00
39341;BME280;25059;52.132;21.062;2023-02-12T06:38:51;102214.19;;;0.89;100.00
39341;BME280;25059;52.132;21.062;2023-02-12T06:41:36;102227.03;;;0.86;100.00
39341;BME280;25059;52.132;21.062;2023-02-12T06:44:21;102222.97;;;0.94;100.00
39341;BME280;25059;52.132;21.062;2023-02-12T06:47:06;102220.19;;;0.88;100.00
39341;BME280;25059;52.132;21.062;2023-02-12T06:49:50;102223.38;;;0.79;100.00
39341;BME280;25059;52.132;21.062;2023-02-12T06:52:35;102224.38;;;0.56;100.00
39341;BME280;25059;52.132;21.062;2023-02-12T06:55:20;102233.69;;;0.51;100.00
39341;BME280;25059;52.132;21.062;2023-02-12T06:58:05;102232.13;;;0.56;100.00
39341;BME280;25059;52.132;21.062;2023-02-12T07:00:49;102231.25;;;0.55;100.00
39341;BME280;25059;52.132;21.062;2023-02-12T07:03:34;102236.31;;;0.52;100.00
39341;BME280;25059;52.132;21.062;2023-02-12T07:06:21;102241.41;;;0.49;100.00
39341;BME280;25059;52.132;21.062;2023-02-12T07:09:06;102244.00;;;0.49;100.00
39341;BME280;25059;52.132;21.062;2023-02-12T07:11:50;102241.50;;;0.52;100.00
39341;BME280;25059;52.132;21.062;2023-02-12T07:14:35;102239.94;;;0.57;100.00
39341;BME280;25059;52.132;21.062;2023-02-12T07:17:20;102242.53;;;0.57;100.00
39341;BME280;25059;52.132;21.062;2023-02-12T07:20:05;102241.66;;;0.57;100.00
39341;BME280;25059;52.132;21.062;2023-02-12T07:22:49;102255.50;;;0.59;100.00
39341;BME280;25059;52.132;21.062;2023-02-12T07:25:34;102249.84;;;0.71;100.00
39341;BME280;25059;52.132;21.062;2023-02-12T07:28:19;102250.69;;;0.70;100.00
39341;BME280;25059;52.132;21.062;2023-02-12T07:33:54;102257.75;;;0.75;100.00
39341;BME280;25059;52.132;21.062;2023-02-12T07:36:39;102259.53;;;0.76;100.00
39341;BME280;25059;52.132;21.062;2023-02-12T07:39:24;102255.28;;;0.78;100.00
39341;BME280;25059;52.132;21.062;2023-02-12T07:42:08;102253.84;;;0.88;100.00
39341;BME280;25059;52.132;21.062;2023-02-12T07:44:53;102254.91;;;0.94;100.00
39341;BME280;25059;52.132;21.062;2023-02-12T07:47:38;102253.75;;;0.85;100.00
39341;BME280;25059;52.132;21.062;2023-02-12T07:50:23;102255.38;;;0.81;100.00
39341;BME280;25059;52.132;21.062;2023-02-12T07:53:08;102253.53;;;1.06;100.00
39341;BME280;25059;52.132;21.062;2023-02-12T07:55:52;102251.09;;;1.10;100.00
39341;BME280;25059;52.132;21.062;2023-02-12T07:58:38;102253.88;;;1.16;100.00
39341;BME280;25059;52.132;21.062;2023-02-12T08:01:27;102258.72;;;1.34;100.00
39341;BME280;25059;52.132;21.062;2023-02-12T08:04:15;102273.81;;;1.49;100.00
39341;BME280;25059;52.132;21.062;2023-02-12T08:06:59;102280.34;;;1.65;100.00
39341;BME280;25059;52.132;21.062;2023-02-12T08:09:44;102281.50;;;1.76;100.00
39341;BME280;25059;52.132;21.062;2023-02-12T08:12:29;102279.94;;;1.81;100.00
39341;BME280;25059;52.132;21.062;2023-02-12T08:15:13;102276.78;;;1.61;100.00
39341;BME280;25059;52.132;21.062;2023-02-12T08:17:58;102285.50;;;1.35;100.00
39341;BME280;25059;52.132;21.062;2023-02-12T08:20:45;102289.63;;;1.28;100.00
39341;BME280;25059;52.132;21.062;2023-02-12T08:23:30;102287.53;;;1.45;100.00
39341;BME280;25059;52.132;21.062;2023-02-12T08:26:19;102297.59;;;1.64;100.00
39341;BME280;25059;52.132;21.062;2023-02-12T08:29:08;102294.81;;;1.58;100.00
39341;BME280;25059;52.132;21.062;2023-02-12T08:31:56;102305.16;;;1.56;100.00
39341;BME280;25059;52.132;21.062;2023-02-12T08:34:41;102293.06;;;1.57;100.00
39341;BME280;25059;52.132;21.062;2023-02-12T08:37:25;102290.25;;;1.49;100.00
39341;BME280;25059;52.132;21.062;2023-02-12T08:40:10;102295.53;;;1.52;100.00
39341;BME280;25059;52.132;21.062;2023-02-12T08:42:57;102296.13;;;1.44;100.00
39341;BME280;25059;52.132;21.062;2023-02-12T08:45:42;102308.22;;;1.43;100.00
39341;BME280;25059;52.132;21.062;2023-02-12T08:48:27;102298.72;;;1.44;100.00
39341;BME280;25059;52.132;21.062;2023-02-12T08:51:16;102292.16;;;1.55;100.00
39341;BME280;25059;52.132;21.062;2023-02-12T08:54:03;102297.13;;;1.77;100.00
39341;BME280;25059;52.132;21.062;2023-02-12T08:56:48;102304.63;;;1.98;100.00
39341;BME280;25059;52.132;21.062;2023-02-12T08:59:33;102306.50;;;2.04;100.00
39341;BME280;25059;52.132;21.062;2023-02-12T09:02:17;102298.28;;;2.20;100.00
39341;BME280;25059;52.132;21.062;2023-02-12T09:05:02;102289.75;;;2.24;100.00
39341;BME280;25059;52.132;21.062;2023-02-12T09:07:47;102297.53;;;1.92;100.00
39341;BME280;25059;52.132;21.062;2023-02-12T09:10:32;102299.56;;;1.73;100.00
39341;BME280;25059;52.132;21.062;2023-02-12T09:13:16;102300.44;;;2.03;100.00
39341;BME280;25059;52.132;21.062;2023-02-12T09:16:02;102300.53;;;2.39;100.00
39341;BME280;25059;52.132;21.062;2023-02-12T09:18:47;102306.59;;;2.40;100.00
39341;BME280;25059;52.132;21.062;2023-02-12T09:21:32;102308.22;;;2.36;100.00
39341;BME280;25059;52.132;21.062;2023-02-12T09:24:16;102301.09;;;2.28;100.00
39341;BME280;25059;52.132;21.062;2023-02-12T09:27:01;102313.44;;;2.05;100.00
39341;BME280;25059;52.132;21.062;2023-02-12T09:29:45;102325.28;;;1.95;100.00
39341;BME280;25059;52.132;21.062;2023-02-12T09:32:30;102325.97;;;1.89;100.00
39341;BME280;25059;52.132;21.062;2023-02-12T09:35:15;102332.34;;;2.32;100.00
39341;BME280;25059;52.132;21.062;2023-02-12T09:38:00;102323.00;;;2.39;100.00
39341;BME280;25059;52.132;21.062;2023-02-12T09:43:52;102325.44;;;3.02;100.00
39341;BME280;25059;52.132;21.062;2023-02-12T09:46:46;102328.78;;;3.34;100.00
39341;BME280;25059;52.132;21.062;2023-02-12T09:52:27;102353.13;;;2.65;100.00
39341;BME280;25059;52.132;21.062;2023-02-12T09:55:14;102349.56;;;2.62;100.00
39341;BME280;25059;52.132;21.062;2023-02-12T09:58:01;102349.41;;;2.55;100.00
39341;BME280;25059;52.132;21.062;2023-02-12T10:00:47;102351.81;;;2.82;100.00
39341;BME280;25059;52.132;21.062;2023-02-12T10:03:32;102350.75;;;3.46;100.00
39341;BME280;25059;52.132;21.062;2023-02-12T10:06:20;102354.28;;;3.91;100.00
39341;BME280;25059;52.132;21.062;2023-02-12T10:12:17;102347.13;;;4.22;100.00
39341;BME280;25059;52.132;21.062;2023-02-12T10:21:05;102314.09;;;9.28;61.32
39341;BME280;25059;52.132;21.062;2023-02-12T10:23:57;102306.94;;;9.79;58.23
39341;BME280;25059;52.132;21.062;2023-02-12T10:26:47;102306.91;;;9.85;54.83
39341;BME280;25059;52.132;21.062;2023-02-12T10:29:33;102313.19;;;9.43;55.02
39341;BME280;25059;52.132;21.062;2023-02-12T10:32:32;102315.88;;;9.09;54.09
39341;BME280;25059;52.132;21.062;2023-02-12T10:35:20;102323.78;;;8.89;55.16
39341;BME280;25059;52.132;21.062;2023-02-12T10:38:09;102327.25;;;9.10;55.05
39341;BME280;25059;52.132;21.062;2023-02-12T10:40:57;102320.22;;;9.28;54.16
39341;BME280;25059;52.132;21.062;2023-02-12T10:43:45;102316.69;;;9.42;54.03
39341;BME280;25059;52.132;21.062;2023-02-12T10:46:30;102311.53;;;8.88;54.50
39341;BME280;25059;52.132;21.062;2023-02-12T10:49:17;102314.06;;;8.30;57.52
39341;BME280;25059;52.132;21.062;2023-02-12T10:55:27;102323.66;;;8.18;57.00
39341;BME280;25059;52.132;21.062;2023-02-12T10:58:21;102309.78;;;8.78;57.11
39341;BME280;25059;52.132;21.062;2023-02-12T11:01:17;102303.53;;;9.52;54.07
39341;BME280;25059;52.132;21.062;2023-02-12T11:04:26;102304.94;;;10.34;51.91
39341;BME280;25059;52.132;21.062;2023-02-12T11:07:11;102303.59;;;9.40;52.78
39341;BME280;25059;52.132;21.062;2023-02-12T11:09:56;102306.28;;;8.76;54.17
39341;BME280;25059;52.132;21.062;2023-02-12T11:12:41;102314.16;;;8.52;56.48
39341;BME280;25059;52.132;21.062;2023-02-12T11:15:47;102301.91;;;9.04;55.04
39341;BME280;25059;52.132;21.062;2023-02-12T11:18:33;102314.69;;;10.08;52.50
39341;BME280;25059;52.132;21.062;2023-02-12T11:21:22;102313.16;;;9.61;52.67
39341;BME280;25059;52.132;21.062;2023-02-12T11:30:17;102298.13;;;11.14;49.60
39341;BME280;25059;52.132;21.062;2023-02-12T11:33:37;102297.28;;;11.89;49.03
39341;BME280;25059;52.132;21.062;2023-02-12T11:36:24;102304.31;;;11.88;47.39
39341;BME280;25059;52.132;21.062;2023-02-12T11:39:19;102293.25;;;11.57;49.25
39341;BME280;25059;52.132;21.062;2023-02-12T11:44:58;102293.63;;;10.14;52.04
39341;BME280;25059;52.132;21.062;2023-02-12T11:47:43;102296.59;;;9.30;54.82
39341;BME280;25059;52.132;21.062;2023-02-12T11:50:31;102289.28;;;10.11;53.31
39341;BME280;25059;52.132;21.062;2023-02-12T11:53:21;102292.19;;;10.92;50.71
39341;BME280;25059;52.132;21.062;2023-02-12T11:56:09;102284.53;;;10.65;51.75
39341;BME280;25059;52.132;21.062;2023-02-12T11:59:10;102300.00;;;9.61;54.20
39341;BME280;25059;52.132;21.062;2023-02-12T12:01:58;102297.28;;;9.85;55.36
39341;BME280;25059;52.132;21.062;2023-02-12T12:04:47;102287.34;;;11.39;51.73
39341;BME280;25059;52.132;21.062;2023-02-12T12:07:38;102285.13;;;12.94;47.08
39341;BME280;25059;52.132;21.062;2023-02-12T12:10:43;102283.75;;;12.15;47.40
39341;BME280;25059;52.132;21.062;2023-02-12T12:13:34;102281.16;;;12.12;47.44
39341;BME280;25059;52.132;21.062;2023-02-12T12:16:28;102289.47;;;11.83;47.99
39341;BME280;25059;52.132;21.062;2023-02-12T12:19:42;102290.56;;;12.29;47.41
39341;BME280;25059;52.132;21.062;2023-02-12T12:22:48;102282.75;;;12.23;48.17
39341;BME280;25059;52.132;21.062;2023-02-12T12:28:31;102277.38;;;10.81;50.43
39341;BME280;25059;52.132;21.062;2023-02-12T12:31:27;102274.97;;;10.58;50.94
39341;BME280;25059;52.132;21.062;2023-02-12T12:34:19;102274.31;;;10.19;52.57
39341;BME280;25059;52.132;21.062;2023-02-12T12:46:25;102281.31;;;7.14;65.11
39341;BME280;25059;52.132;21.062;2023-02-12T12:52:20;102273.00;;;8.22;62.53
39341;BME280;25059;52.132;21.062;2023-02-12T12:58:59;102254.13;;;10.29;55.49
39341;BME280;25059;52.132;21.062;2023-02-12T13:02:16;102256.81;;;10.21;53.62
39341;BME280;25059;52.132;21.062;2023-02-12T13:14:13;102235.91;;;12.90;47.52
39341;BME280;25059;52.132;21.062;2023-02-12T13:17:12;102232.53;;;14.11;43.76
39341;BME280;25059;52.132;21.062;2023-02-12T13:26:26;102243.69;;;14.61;41.21
39341;BME280;25059;52.132;21.062;2023-02-12T13:29:18;102252.00;;;12.22;44.57
39341;BME280;25059;52.132;21.062;2023-02-12T13:32:06;102254.91;;;12.61;44.55
39341;BME280;25059;52.132;21.062;2023-02-12T13:34:56;102245.94;;;12.71;44.62
39341;BME280;25059;52.132;21.062;2023-02-12T13:37:46;102254.16;;;12.53;45.04
39341;BME280;25059;52.132;21.062;2023-02-12T13:40:32;102253.28;;;11.23;47.05
39341;BME280;25059;52.132;21.062;2023-02-12T13:52:54;102261.53;;;11.67;48.06
39341;BME280;25059;52.132;21.062;2023-02-12T13:58:37;102259.50;;;10.11;49.71
39341;BME280;25059;52.132;21.062;2023-02-12T14:01:43;102267.69;;;9.44;53.03
39341;BME280;25059;52.132;21.062;2023-02-12T14:04:32;102267.78;;;8.26;56.67
39341;BME280;25059;52.132;21.062;2023-02-12T14:07:17;102271.25;;;8.08;59.17
39341;BME280;25059;52.132;21.062;2023-02-12T14:10:05;102268.63;;;8.13;60.69
39341;BME280;25059;52.132;21.062;2023-02-12T14:12:52;102272.19;;;8.81;58.57
39341;BME280;25059;52.132;21.062;2023-02-12T14:15:41;102266.84;;;8.01;61.06
39341;BME280;25059;52.132;21.062;2023-02-12T14:18:35;102268.59;;;8.05;61.98
39341;BME280;25059;52.132;21.062;2023-02-12T14:24:45;102273.84;;;7.99;63.97
39341;BME280;25059;52.132;21.062;2023-02-12T14:30:24;102267.84;;;8.46;60.06
39341;BME280;25059;52.132;21.062;2023-02-12T14:33:18;102269.56;;;8.35;62.57
39341;BME280;25059;52.132;21.062;2023-02-12T14:36:14;102265.94;;;7.81;64.52
39341;BME280;25059;52.132;21.062;2023-02-12T14:39:03;102271.53;;;6.86;72.01
39341;BME280;25059;52.132;21.062;2023-02-12T14:41:51;102278.72;;;6.12;83.23
39341;BME280;25059;52.132;21.062;2023-02-12T14:44:45;102276.47;;;5.70;90.82
39341;BME280;25059;52.132;21.062;2023-02-12T14:50:19;102270.59;;;5.20;100.00
39341;BME280;25059;52.132;21.062;2023-02-12T14:53:20;102269.47;;;5.03;100.00
39341;BME280;25059;52.132;21.062;2023-02-12T14:56:07;102271.97;;;4.41;100.00
39341;BME280;25059;52.132;21.062;2023-02-12T14:58:54;102273.19;;;4.13;100.00
39341;BME280;25059;52.132;21.062;2023-02-12T15:01:41;102272.16;;;4.03;100.00
39341;BME280;25059;52.132;21.062;2023-02-12T15:04:29;102276.22;;;3.89;100.00
39341;BME280;25059;52.132;21.062;2023-02-12T15:07:23;102279.53;;;3.82;100.00
39341;BME280;25059;52.132;21.062;2023-02-12T15:10:16;102286.59;;;3.45;100.00
39341;BME280;25059;52.132;21.062;2023-02-12T15:21:27;102283.97;;;2.69;100.00
39341;BME280;25059;52.132;21.062;2023-02-12T15:24:21;102288.66;;;2.49;100.00
39341;BME280;25059;52.132;21.062;2023-02-12T15:27:06;102297.00;;;2.37;100.00
39341;BME280;25059;52.132;21.062;2023-02-12T15:29:55;102292.47;;;2.29;100.00
39341;BME280;25059;52.132;21.062;2023-02-12T15:32:41;102293.19;;;2.23;100.00
39341;BME280;25059;52.132;21.062;2023-02-12T15:35:31;102296.84;;;1.98;100.00
39341;BME280;25059;52.132;21.062;2023-02-12T15:38:34;102298.91;;;1.80;100.00
39341;BME280;25059;52.132;21.062;2023-02-12T15:41:26;102307.88;;;1.61;100.00
39341;BME280;25059;52.132;21.062;2023-02-12T15:47:13;102314.41;;;1.48;100.00
39341;BME280;25059;52.132;21.062;2023-02-12T15:49:59;102314.19;;;1.41;100.00
39341;BME280;25059;52.132;21.062;2023-02-12T15:52:45;102314.94;;;1.37;100.00
39341;BME280;25059;52.132;21.062;2023-02-12T15:55:35;102320.06;;;1.35;100.00
39341;BME280;25059;52.132;21.062;2023-02-12T15:58:23;102315.44;;;1.25;100.00
39341;BME280;25059;52.132;21.062;2023-02-12T16:01:15;102317.88;;;1.20;100.00
39341;BME280;25059;52.132;21.062;2023-02-12T16:04:02;102324.81;;;1.21;100.00
39341;BME280;25059;52.132;21.062;2023-02-12T16:06:48;102324.44;;;1.09;100.00
39341;BME280;25059;52.132;21.062;2023-02-12T16:09:35;102312.03;;;0.99;100.00
39341;BME280;25059;52.132;21.062;2023-02-12T16:12:23;102315.16;;;0.89;100.00
39341;BME280;25059;52.132;21.062;2023-02-12T16:15:28;102303.63;;;0.79;100.00
39341;BME280;25059;52.132;21.062;2023-02-12T16:18:23;102307.19;;;0.83;100.00
39341;BME280;25059;52.132;21.062;2023-02-12T16:23:58;102301.53;;;0.68;100.00
39341;BME280;25059;52.132;21.062;2023-02-12T16:26:45;102312.69;;;0.67;100.00
39341;BME280;25059;52.132;21.062;2023-02-12T16:29:31;102310.84;;;0.62;100.00
39341;BME280;25059;52.132;21.062;2023-02-12T16:32:41;102305.66;;;0.62;100.00
39341;BME280;25059;52.132;21.062;2023-02-12T16:35:30;102301.91;;;0.53;100.00
39341;BME280;25059;52.132;21.062;2023-02-12T16:41:29;102308.31;;;0.64;100.00
39341;BME280;25059;52.132;21.062;2023-02-12T16:46:59;102300.03;;;0.49;100.00
39341;BME280;25059;52.132;21.062;2023-02-12T16:49:53;102297.75;;;0.58;100.00
39341;BME280;25059;52.132;21.062;2023-02-12T16:52:40;102292.78;;;0.64;100.00
39341;BME280;25059;52.132;21.062;2023-02-12T16:55:25;102291.78;;;0.60;100.00
39341;BME280;25059;52.132;21.062;2023-02-12T16:58:09;102289.88;;;0.55;100.00
39341;BME280;25059;52.132;21.062;2023-02-12T17:00:56;102289.72;;;0.50;100.00
39341;BME280;25059;52.132;21.062;2023-02-12T17:03:42;102294.09;;;0.51;100.00
39341;BME280;25059;52.132;21.062;2023-02-12T17:06:29;102286.31;;;0.51;100.00